E.r. Bern — A8XQ5 — position and weather

sailwx.info

Track history (hours):
 
Tides and Currents Weather Stations Pressure Air Temp Water Temp Dewpoint Dewpoint Depression Visibility Wind Speed Wind Dir Waves Ship Positions

E.r. Bern

Last reported at 2015-Jul-07 23:32 UTC. Time now 2015-Jul-08 00:06 UTC.
Position N 37°35' E 121°23'.

Length 187 m; draft 7.1 m.

Type: Cargo ship. MMSI: 636092150.

Date/timePositionNaut miles runAvg speedWind from/ knotsBaromVisibWave heightAir tempDewpointWater temp
2015-Jul-07 23:32N 37°35' E 121°23'0 0.0
2015-Jul-07 22:32N 37°35' E 121°23'0 0.0
2015-Jul-07 21:29N 37°35' E 121°23'0 0.1
2015-Jul-07 20:32N 37°35' E 121°23'0 0.0
2015-Jul-07 19:32N 37°35' E 121°23'0 0.0
2015-Jul-07 18:32N 37°35' E 121°23'0 0.0
2015-Jul-07 17:32N 37°35' E 121°23'0 0.0
2015-Jul-07 16:29N 37°35' E 121°23'0 0.0
2015-Jul-07 15:32N 37°35' E 121°23'0 0.0
2015-Jul-07 14:32N 37°35' E 121°23'0 0.0
2015-Jul-07 13:32N 37°35' E 121°23'0 0.0
2015-Jul-07 12:32N 37°35' E 121°23'0 0.0
2015-Jul-07 11:32N 37°35' E 121°23'0 0.0
2015-Jul-07 10:32N 37°35' E 121°23'0 0.0
2015-Jul-07 09:32N 37°35' E 121°23'0 0.0
2015-Jul-07 08:29N 37°35' E 121°23'0 0.0
2015-Jul-07 07:32N 37°35' E 121°23'0 0.0
2015-Jul-07 06:29N 37°35' E 121°23'0 0.1
2015-Jul-07 05:32N 37°35' E 121°23'0 0.0
2015-Jul-07 04:32N 37°35' E 121°23'0 0.0
2015-Jul-07 03:29N 37°35' E 121°23'0 0.0
2015-Jul-07 02:32N 37°35' E 121°23'0 0.0
2015-Jul-07 01:32N 37°35' E 121°23'0 0.0
2015-Jul-07 00:29N 37°35' E 121°23'0 0.0
2015-Jul-06 23:29N 37°35' E 121°23'0 0.1
2015-Jul-06 22:32N 37°35' E 121°23'0 0.0
2015-Jul-06 21:29N 37°35' E 121°23'0 0.0
2015-Jul-06 20:32N 37°35' E 121°23'0 0.0
2015-Jul-06 19:32N 37°35' E 121°23'0 0.0
2015-Jul-06 18:32N 37°35' E 121°23'0 0.0
2015-Jul-06 17:32N 37°35' E 121°23'0 0.0
2015-Jul-06 16:32N 37°35' E 121°23'0 0.0
2015-Jul-06 15:32N 37°35' E 121°23'0 0.0
2015-Jul-06 14:29N 37°35' E 121°23'0 0.0
2015-Jul-06 13:29N 37°35' E 121°23'0 0.0
2015-Jul-06 12:32N 37°35' E 121°23'0 0.0
2015-Jul-06 11:32N 37°35' E 121°23'0 0.0
2015-Jul-06 10:32N 37°35' E 121°23'0 0.0
2015-Jul-06 09:32N 37°35' E 121°23'0 0.0
2015-Jul-06 08:33N 37°35' E 121°23'3 3.4
2015-Jul-06 07:34N 37°36' E 121°27'5 4.6
2015-Jul-06 06:33N 37°39' E 121°32'0 0.0
2015-Jul-06 05:33N 37°39' E 121°32'0 0.1
2015-Jul-06 04:30N 37°39' E 121°32'0 0.1
2015-Jul-06 03:30N 37°39' E 121°32'0 0.0
2015-Jul-06 02:30N 37°39' E 121°32'0 0.1
2015-Jul-06 01:33N 37°39' E 121°32'0 0.0
2015-Jul-06 00:33N 37°39' E 121°32'0 0.0
2015-Jul-05 23:33N 37°39' E 121°32'0 0.0
2015-Jul-05 22:33N 37°39' E 121°32'0 0.0
2015-Jul-05 21:33N 37°39' E 121°32'0 0.0
2015-Jul-05 20:33N 37°39' E 121°32'0 0.0
2015-Jul-05 19:33N 37°39' E 121°32'4 4.2
2015-Jul-05 18:33N 37°41' E 121°36'10 9.8
2015-Jul-05 17:33N 37°46' E 121°47'1110.2
2015-Jul-05 16:30N 37°46' E 122°01'1010.4
2015-Jul-05 15:33N 37°47' E 122°13'1110.9
2015-Jul-05 14:33N 37°47' E 122°27'50 9.3
2015-Jul-05 09:09N 37°16' E 123°16'32510.9
2015-Jul-04 03:14N 31°51' E 123°34'912.2
2015-Jul-04 02:31N 31°43' E 123°34'1111.5
2015-Jul-04 01:33N 31°32' E 123°36'1212.1
2015-Jul-04 00:33N 31°19' E 123°36'3010.1
2015-Jul-03 21:33N 30°49' E 123°38'10 9.7
2015-Jul-03 20:33N 30°40' E 123°38'10 9.9
2015-Jul-03 19:33N 30°30' E 123°36'1110.5
2015-Jul-03 18:30N 30°19' E 123°35'1010.9
2015-Jul-03 17:33N 30°09' E 123°33'  
Track history (hours):
 
Tides and Currents Weather Stations Pressure Air Temp Water Temp Dewpoint Dewpoint Depression Visibility Wind Speed Wind Dir Waves Ship Positions

E.r. Bern

Last reported at 2015-Jul-07 23:32 UTC. Time now 2015-Jul-08 00:06 UTC.
Position N 37°35' E 121°23'.

Length 187 m; draft 7.1 m.

Type: Cargo ship. MMSI: 636092150.

Date/timePositionNaut miles runAvg speedWind from/ knotsBaromVisibWave heightAir tempDewpointWater temp
2015-Jul-07 23:32N 37°35' E 121°23'0 0.0
2015-Jul-07 22:32N 37°35' E 121°23'0 0.0
2015-Jul-07 21:29N 37°35' E 121°23'0 0.1
2015-Jul-07 20:32N 37°35' E 121°23'0 0.0
2015-Jul-07 19:32N 37°35' E 121°23'0 0.0
2015-Jul-07 18:32N 37°35' E 121°23'0 0.0
2015-Jul-07 17:32N 37°35' E 121°23'0 0.0
2015-Jul-07 16:29N 37°35' E 121°23'0 0.0
2015-Jul-07 15:32N 37°35' E 121°23'0 0.0
2015-Jul-07 14:32N 37°35' E 121°23'0 0.0
2015-Jul-07 13:32N 37°35' E 121°23'0 0.0
2015-Jul-07 12:32N 37°35' E 121°23'0 0.0
2015-Jul-07 11:32N 37°35' E 121°23'0 0.0
2015-Jul-07 10:32N 37°35' E 121°23'0 0.0
2015-Jul-07 09:32N 37°35' E 121°23'0 0.0
2015-Jul-07 08:29N 37°35' E 121°23'0 0.0
2015-Jul-07 07:32N 37°35' E 121°23'0 0.0
2015-Jul-07 06:29N 37°35' E 121°23'0 0.1
2015-Jul-07 05:32N 37°35' E 121°23'0 0.0
2015-Jul-07 04:32N 37°35' E 121°23'0 0.0
2015-Jul-07 03:29N 37°35' E 121°23'0 0.0
2015-Jul-07 02:32N 37°35' E 121°23'0 0.0
2015-Jul-07 01:32N 37°35' E 121°23'0 0.0
2015-Jul-07 00:29N 37°35' E 121°23'0 0.0
2015-Jul-06 23:29N 37°35' E 121°23'0 0.1
2015-Jul-06 22:32N 37°35' E 121°23'0 0.0
2015-Jul-06 21:29N 37°35' E 121°23'0 0.0
2015-Jul-06 20:32N 37°35' E 121°23'0 0.0
2015-Jul-06 19:32N 37°35' E 121°23'0 0.0
2015-Jul-06 18:32N 37°35' E 121°23'0 0.0
2015-Jul-06 17:32N 37°35' E 121°23'0 0.0
2015-Jul-06 16:32N 37°35' E 121°23'0 0.0
2015-Jul-06 15:32N 37°35' E 121°23'0 0.0
2015-Jul-06 14:29N 37°35' E 121°23'0 0.0
2015-Jul-06 13:29N 37°35' E 121°23'0 0.0
2015-Jul-06 12:32N 37°35' E 121°23'0 0.0
2015-Jul-06 11:32N 37°35' E 121°23'0 0.0
2015-Jul-06 10:32N 37°35' E 121°23'0 0.0
2015-Jul-06 09:32N 37°35' E 121°23'0 0.0
2015-Jul-06 08:33N 37°35' E 121°23'3 3.4
2015-Jul-06 07:34N 37°36' E 121°27'5 4.6
2015-Jul-06 06:33N 37°39' E 121°32'0 0.0
2015-Jul-06 05:33N 37°39' E 121°32'0 0.1
2015-Jul-06 04:30N 37°39' E 121°32'0 0.1
2015-Jul-06 03:30N 37°39' E 121°32'0 0.0
2015-Jul-06 02:30N 37°39' E 121°32'0 0.1
2015-Jul-06 01:33N 37°39' E 121°32'0 0.0
2015-Jul-06 00:33N 37°39' E 121°32'0 0.0
2015-Jul-05 23:33N 37°39' E 121°32'0 0.0
2015-Jul-05 22:33N 37°39' E 121°32'0 0.0
2015-Jul-05 21:33N 37°39' E 121°32'0 0.0
2015-Jul-05 20:33N 37°39' E 121°32'0 0.0
2015-Jul-05 19:33N 37°39' E 121°32'4 4.2
2015-Jul-05 18:33N 37°41' E 121°36'10 9.8
2015-Jul-05 17:33N 37°46' E 121°47'1110.2
2015-Jul-05 16:30N 37°46' E 122°01'1010.4
2015-Jul-05 15:33N 37°47' E 122°13'1110.9
2015-Jul-05 14:33N 37°47' E 122°27'50 9.3
2015-Jul-05 09:09N 37°16' E 123°16'32510.9
2015-Jul-04 03:14N 31°51' E 123°34'912.2
2015-Jul-04 02:31N 31°43' E 123°34'1111.5
2015-Jul-04 01:33N 31°32' E 123°36'1212.1
2015-Jul-04 00:33N 31°19' E 123°36'3010.1
2015-Jul-03 21:33N 30°49' E 123°38'10 9.7
2015-Jul-03 20:33N 30°40' E 123°38'10 9.9
2015-Jul-03 19:33N 30°30' E 123°36'1110.5
2015-Jul-03 18:30N 30°19' E 123°35'1010.9
2015-Jul-03 17:33N 30°09' E 123°33'  

Dump ship's entire track history